TimeCDT,TemperatureF,Dew PointF,Humidity,Sea Level PressureIn,VisibilityMPH,Wind Direction,Wind SpeedMPH,Gust SpeedMPH,PrecipitationIn,Events,Conditions,WindDirDegrees,DateUTC
12:15 AM,41.9,30.0,63,30.10,10.0,Calm,Calm,-,N/A,,Clear,0,2012-11-03 05:15:00
12:35 AM,41.9,29.8,62,30.11,7.0,NE,3.5,-,N/A,,Clear,50,2012-11-03 05:35:00
12:55 AM,41.5,29.8,63,30.10,10.0,ENE,3.5,-,N/A,,Clear,70,2012-11-03 05:55:00
1:15 AM,41.4,30.2,65,30.10,10.0,ENE,4.6,-,N/A,,Clear,70,2012-11-03 06:15:00
1:35 AM,41.2,30.9,67,30.09,10.0,East,5.8,-,N/A,,Clear,80,2012-11-03 06:35:00
1:55 AM,41.4,31.1,67,30.09,10.0,ENE,5.8,-,N/A,,Clear,70,2012-11-03 06:55:00
2:15 AM,41.5,31.8,68,30.09,10.0,ENE,6.9,-,N/A,,Scattered Clouds,70,2012-11-03 07:15:00
2:35 AM,41.4,32.0,69,30.08,10.0,East,10.4,-,N/A,,Mostly Cloudy,80,2012-11-03 07:35:00
2:55 AM,41.2,32.2,70,30.08,10.0,East,10.4,16.1,N/A,,Mostly Cloudy,80,2012-11-03 07:55:00
3:15 AM,41.2,32.5,71,30.07,10.0,East,9.2,-,N/A,,Overcast,80,2012-11-03 08:15:00
3:35 AM,41.2,32.9,72,30.09,10.0,East,8.1,-,N/A,,Overcast,80,2012-11-03 08:35:00
3:55 AM,41.0,33.1,73,30.08,10.0,East,6.9,-,N/A,,Overcast,80,2012-11-03 08:55:00
4:15 AM,40.3,34.0,78,30.09,10.0,ENE,6.9,-,N/A,Thunderstorm,Overcast,70,2012-11-03 09:15:00
4:35 AM,39.9,35.1,83,30.12,7.0,NNE,5.8,-,0.03,,Overcast,30,2012-11-03 09:35:00
4:55 AM,40.1,35.6,84,30.08,10.0,East,10.4,-,0.03,Thunderstorm,Overcast,90,2012-11-03 09:55:00
5:15 AM,40.3,35.4,83,30.08,10.0,East,5.8,-,N/A,,Overcast,80,2012-11-03 10:15:00
5:35 AM,40.3,35.6,83,30.07,10.0,ESE,12.7,-,N/A,,Overcast,110,2012-11-03 10:35:00
5:55 AM,40.3,35.6,83,30.09,10.0,ENE,8.1,-,N/A,,Overcast,70,2012-11-03 10:55:00
6:15 AM,40.3,35.6,83,30.10,10.0,East,8.1,-,N/A,,Overcast,100,2012-11-03 11:15:00
6:35 AM,40.3,35.6,83,30.10,10.0,East,6.9,-,N/A,,Overcast,80,2012-11-03 11:35:00
6:55 AM,40.3,35.6,83,30.10,10.0,East,8.1,-,N/A,,Overcast,100,2012-11-03 11:55:00
7:15 AM,40.3,35.8,84,30.10,10.0,East,8.1,-,N/A,,Overcast,80,2012-11-03 12:15:00
7:35 AM,40.3,35.8,84,30.10,10.0,East,8.1,-,N/A,,Overcast,90,2012-11-03 12:35:00
7:55 AM,40.3,35.6,83,30.11,10.0,East,8.1,-,N/A,,Overcast,90,2012-11-03 12:55:00
8:15 AM,40.5,35.6,83,30.11,10.0,ENE,6.9,-,N/A,,Overcast,70,2012-11-03 13:15:00
8:35 AM,40.6,35.8,83,30.12,10.0,ENE,9.2,-,N/A,,Overcast,70,2012-11-03 13:35:00
8:55 AM,41.0,35.8,82,30.12,10.0,East,6.9,-,N/A,,Overcast,80,2012-11-03 13:55:00
9:15 AM,41.4,36.0,81,30.12,10.0,ENE,6.9,-,N/A,,Overcast,60,2012-11-03 14:15:00
9:35 AM,41.9,35.8,79,30.12,10.0,ENE,6.9,-,N/A,,Overcast,70,2012-11-03 14:35:00
9:55 AM,42.3,35.8,78,30.11,10.0,East,11.5,17.3,N/A,,Overcast,80,2012-11-03 14:55:00
10:15 AM,42.8,36.0,77,30.11,10.0,East,10.4,-,N/A,,Overcast,90,2012-11-03 15:15:00
10:35 AM,43.7,36.0,74,30.10,10.0,East,9.2,-,N/A,,Overcast,80,2012-11-03 15:35:00
10:55 AM,43.3,36.3,76,30.10,10.0,East,10.4,16.1,N/A,,Overcast,90,2012-11-03 15:55:00
11:15 AM,43.3,36.1,76,30.10,10.0,East,9.2,-,N/A,,Overcast,100,2012-11-03 16:15:00
11:35 AM,43.3,36.3,76,30.10,10.0,East,8.1,-,N/A,,Overcast,80,2012-11-03 16:35:00
11:55 AM,43.7,36.5,76,30.09,10.0,East,6.9,-,N/A,,Overcast,80,2012-11-03 16:55:00
12:15 PM,43.7,36.9,77,30.08,10.0,ENE,8.1,-,N/A,,Overcast,70,2012-11-03 17:15:00
12:35 PM,43.3,36.9,78,30.08,10.0,ENE,6.9,-,N/A,,Overcast,70,2012-11-03 17:35:00
12:55 PM,43.7,37.0,77,30.08,10.0,ENE,8.1,-,N/A,,Overcast,70,2012-11-03 17:55:00
1:15 PM,44.1,37.4,77,30.08,10.0,NE,6.9,-,N/A,,Overcast,50,2012-11-03 18:15:00
1:35 PM,43.9,37.4,78,30.08,10.0,NE,6.9,-,N/A,,Overcast,50,2012-11-03 18:35:00
1:55 PM,44.2,37.2,76,30.09,10.0,NNE,3.5,-,N/A,,Overcast,30,2012-11-03 18:55:00
2:15 PM,44.2,37.0,76,30.08,10.0,NE,6.9,-,N/A,,Overcast,40,2012-11-03 19:15:00
2:35 PM,44.6,37.4,76,30.08,10.0,NE,8.1,-,N/A,,Overcast,40,2012-11-03 19:35:00
2:55 PM,44.2,37.4,77,30.08,10.0,NNE,6.9,-,N/A,,Overcast,20,2012-11-03 19:55:00
3:15 PM,44.2,37.0,76,30.08,10.0,NNE,9.2,-,N/A,,Overcast,30,2012-11-03 20:15:00
3:35 PM,44.6,37.0,75,30.09,10.0,NNE,5.8,-,N/A,,Overcast,30,2012-11-03 20:35:00
3:55 PM,44.8,37.2,75,30.09,10.0,North,9.2,-,N/A,,Overcast,10,2012-11-03 20:55:00
4:15 PM,44.6,37.0,75,30.10,10.0,NNE,9.2,-,N/A,,Overcast,20,2012-11-03 21:15:00
4:35 PM,44.2,37.2,76,30.11,10.0,NNE,9.2,-,N/A,,Overcast,20,2012-11-03 21:35:00
4:55 PM,43.9,36.9,76,30.12,10.0,NNE,4.6,-,N/A,,Overcast,20,2012-11-03 21:55:00
5:15 PM,43.7,36.9,77,30.13,10.0,NNE,4.6,-,N/A,,Overcast,30,2012-11-03 22:15:00
5:35 PM,43.7,37.0,77,30.13,10.0,NE,4.6,-,N/A,,Overcast,40,2012-11-03 22:35:00
5:55 PM,43.3,37.4,80,30.13,10.0,NE,4.6,-,N/A,,Overcast,40,2012-11-03 22:55:00
6:15 PM,42.8,37.0,80,30.13,10.0,NNE,5.8,-,N/A,,Overcast,20,2012-11-03 23:15:00
6:35 PM,42.6,36.7,79,30.14,10.0,North,5.8,-,N/A,,Overcast,10,2012-11-03 23:35:00
6:55 PM,42.4,36.5,79,30.14,10.0,North,6.9,-,N/A,,Overcast,10,2012-11-03 23:55:00
7:15 PM,42.3,36.5,80,30.15,10.0,NNE,5.8,-,N/A,,Overcast,20,2012-11-04 00:15:00
7:35 PM,41.7,36.5,82,30.15,10.0,NNE,3.5,-,N/A,,Overcast,20,2012-11-04 00:35:00
7:55 PM,40.5,36.1,85,30.15,10.0,NNE,3.5,-,N/A,,Scattered Clouds,20,2012-11-04 00:55:00
8:15 PM,40.1,35.8,85,30.15,10.0,NNE,3.5,-,N/A,,Clear,20,2012-11-04 01:15:00
8:35 PM,39.2,35.6,87,30.16,10.0,North,3.5,-,N/A,,Clear,360,2012-11-04 01:35:00
8:55 PM,38.8,36.0,89,30.16,7.0,Calm,Calm,-,N/A,,Scattered Clouds,0,2012-11-04 01:55:00
9:15 PM,39.4,36.5,89,30.17,10.0,North,3.5,-,N/A,,Overcast,360,2012-11-04 02:15:00
9:35 PM,39.2,35.6,87,30.18,7.0,North,3.5,-,N/A,,Scattered Clouds,10,2012-11-04 02:35:00
9:55 PM,38.3,36.0,91,30.18,7.0,North,4.6,-,N/A,,Clear,360,2012-11-04 02:55:00
10:15 PM,38.1,35.6,91,30.18,7.0,North,5.8,-,N/A,,Clear,10,2012-11-04 03:15:00
10:35 PM,37.6,35.1,91,30.18,7.0,North,4.6,-,N/A,,Clear,10,2012-11-04 03:35:00
10:55 PM,37.4,34.7,90,30.18,7.0,NNE,3.5,-,N/A,,Clear,20,2012-11-04 03:55:00
11:15 PM,36.5,34.2,91,30.18,7.0,North,3.5,-,N/A,,Clear,10,2012-11-04 04:15:00
11:35 PM,36.0,33.8,92,30.18,10.0,North,3.5,-,N/A,,Clear,360,2012-11-04 04:35:00
11:55 PM,35.2,33.3,92,30.18,7.0,North,3.5,-,N/A,,Clear,350,2012-11-04 04:55:00